createdAt,value
2017-10-09T00:01:49.342Z,3.63
2017-10-09T00:04:16.754Z,3.77
2017-10-09T00:06:44.173Z,3.17
2017-10-09T00:09:12.350Z,3.50
2017-10-09T00:11:39.779Z,3.70
2017-10-09T00:14:07.651Z,3.53
2017-10-09T00:16:35.843Z,3.63
2017-10-09T00:19:04.021Z,3.40
2017-10-09T00:21:31.450Z,3.90
2017-10-09T00:23:58.878Z,3.50
2017-10-09T00:26:26.289Z,4.20
2017-10-09T00:28:53.710Z,4.83
2017-10-09T00:31:21.121Z,4.00
2017-10-09T00:33:48.557Z,3.30
2017-10-09T00:36:15.998Z,3.80
2017-10-09T00:38:43.399Z,3.20
2017-10-09T00:41:10.820Z,3.63
2017-10-09T00:43:39.705Z,3.83
2017-10-09T00:46:08.806Z,4.50
2017-10-09T00:48:36.227Z,3.00
2017-10-09T00:51:03.642Z,4.00
2017-10-09T00:53:31.074Z,4.23
2017-10-09T00:55:58.482Z,3.27
2017-10-09T00:58:25.915Z,3.70
2017-10-09T01:00:53.318Z,3.90
2017-10-09T01:03:21.515Z,4.17
2017-10-09T01:05:48.930Z,3.47
2017-10-09T01:08:16.454Z,4.00
2017-10-09T01:10:43.855Z,4.40
2017-10-09T01:13:12.038Z,3.60
2017-10-09T01:15:40.249Z,3.80
2017-10-09T01:18:07.671Z,3.60
2017-10-09T01:20:35.863Z,3.83
2017-10-09T01:23:03.275Z,3.87
2017-10-09T01:25:30.698Z,3.60
2017-10-09T01:27:58.122Z,3.20
2017-10-09T01:30:26.312Z,3.60
2017-10-09T01:32:53.709Z,3.00
2017-10-09T01:35:21.126Z,3.17
2017-10-09T01:37:48.536Z,3.20
2017-10-09T01:40:15.969Z,3.43
2017-10-09T01:42:43.401Z,4.33
2017-10-09T01:45:10.831Z,3.70
2017-10-09T01:47:39.926Z,3.80
2017-10-09T01:50:08.119Z,3.13
2017-10-09T01:52:35.532Z,3.33
2017-10-09T01:55:04.458Z,3.50
2017-10-09T01:57:31.938Z,3.50
2017-10-09T01:59:59.363Z,3.80
2017-10-09T02:02:26.775Z,3.33
2017-10-09T02:04:54.205Z,3.70
2017-10-09T02:07:21.605Z,3.83
2017-10-09T02:09:49.023Z,3.60
2017-10-09T02:12:16.443Z,3.73
2017-10-09T02:14:44.003Z,3.33
2017-10-09T02:17:11.451Z,3.40
2017-10-09T02:19:40.564Z,3.77
2017-10-09T02:22:07.970Z,3.17
2017-10-09T02:24:35.382Z,3.20
2017-10-09T02:27:02.807Z,3.27
2017-10-09T02:29:30.982Z,2.77
2017-10-09T02:31:59.175Z,3.50
2017-10-09T02:34:26.578Z,3.13
2017-10-09T02:36:54.026Z,3.53
2017-10-09T02:39:21.706Z,3.30
2017-10-09T02:41:49.887Z,3.47
2017-10-09T02:44:17.302Z,3.40
2017-10-09T02:46:44.714Z,3.17
2017-10-09T02:49:12.919Z,3.50
2017-10-09T02:51:41.588Z,2.95
2017-10-09T02:54:10.687Z,3.03
2017-10-09T02:56:38.111Z,3.20
2017-10-09T02:59:05.526Z,3.10
2017-10-09T03:01:32.954Z,3.50
2017-10-09T03:04:00.361Z,3.27
2017-10-09T03:06:27.796Z,3.13
2017-10-09T03:08:55.204Z,3.00
2017-10-09T03:11:23.395Z,3.10
2017-10-09T03:13:50.811Z,3.10
2017-10-09T03:16:18.238Z,3.37
2017-10-09T03:18:45.664Z,3.20
2017-10-09T03:21:13.066Z,2.90
2017-10-09T03:23:47.679Z,3.20
2017-10-09T03:29:17.142Z,3.13
2017-10-09T03:31:44.558Z,3.00
2017-10-09T03:34:11.975Z,2.77
2017-10-09T03:36:39.393Z,3.23
2017-10-09T03:39:06.810Z,2.80
2017-10-09T03:41:34.231Z,3.23
2017-10-09T03:44:02.435Z,3.20
2017-10-09T03:46:29.840Z,3.40
2017-10-09T03:48:57.262Z,3.23
2017-10-09T03:51:24.678Z,3.33
2017-10-09T03:53:52.866Z,2.90
2017-10-09T03:56:20.286Z,3.10
2017-10-09T03:58:47.702Z,3.30
2017-10-09T04:01:15.118Z,3.53
2017-10-09T04:03:43.298Z,2.77
2017-10-09T04:06:11.630Z,3.30
2017-10-09T04:08:39.066Z,3.00
2017-10-09T04:11:06.486Z,3.17
2017-10-09T04:13:33.970Z,3.27
2017-10-09T04:16:01.387Z,3.13
2017-10-09T04:18:29.567Z,3.00
2017-10-09T04:20:57.478Z,3.13
2017-10-09T04:23:24.899Z,3.67
2017-10-09T04:25:52.314Z,3.23
2017-10-09T04:28:19.743Z,3.10
2017-10-09T04:30:47.163Z,3.30
2017-10-09T04:33:14.785Z,3.13
2017-10-09T04:35:42.239Z,2.80
2017-10-09T04:38:09.638Z,2.83
2017-10-09T04:40:37.054Z,3.10
2017-10-09T04:43:04.478Z,3.03
2017-10-09T04:45:31.886Z,2.80
2017-10-09T04:48:00.080Z,2.87
2017-10-09T04:50:27.494Z,3.40
2017-10-09T04:52:54.922Z,3.60
2017-10-09T04:55:22.334Z,4.13
2017-10-09T04:57:50.522Z,3.17
2017-10-09T05:00:17.957Z,2.73
2017-10-09T05:02:45.366Z,2.40
2017-10-09T05:05:12.770Z,2.53
2017-10-09T05:07:40.987Z,2.63
2017-10-09T05:10:08.389Z,2.40
2017-10-09T05:12:35.810Z,2.50
2017-10-09T05:15:03.234Z,2.50
2017-10-09T05:17:30.649Z,2.20
2017-10-09T05:19:58.059Z,2.50
2017-10-09T05:22:25.478Z,2.83
2017-10-09T05:24:53.658Z,2.60
2017-10-09T05:27:21.863Z,2.60
2017-10-09T05:29:49.262Z,2.10
2017-10-09T05:32:16.688Z,2.00
2017-10-09T05:34:44.093Z,1.90
2017-10-09T05:37:13.215Z,2.40
2017-10-09T05:39:40.639Z,2.37
2017-10-09T05:42:08.852Z,2.15
2017-10-09T05:44:36.262Z,1.90
2017-10-09T05:47:03.682Z,2.37
2017-10-09T05:49:31.106Z,2.77
2017-10-09T05:51:58.519Z,2.50
2017-10-09T05:54:25.931Z,2.07
2017-10-09T05:56:53.355Z,2.33
2017-10-09T05:59:21.530Z,2.67
2017-10-09T06:01:49.706Z,2.40
2017-10-09T06:04:17.891Z,2.43
2017-10-09T06:06:45.294Z,2.30
2017-10-09T06:09:13.660Z,2.50
2017-10-09T06:11:41.066Z,2.87
2017-10-09T06:14:09.263Z,2.57
2017-10-09T06:16:37.581Z,2.40
2017-10-09T06:19:05.798Z,2.00
2017-10-09T06:21:33.206Z,2.20
2017-10-09T06:24:00.625Z,2.60
2017-10-09T06:26:28.045Z,2.10
2017-10-09T06:28:55.467Z,2.00
2017-10-09T06:31:22.909Z,2.13
2017-10-09T06:33:50.317Z,2.17
2017-10-09T06:36:18.500Z,2.17
2017-10-09T06:38:46.699Z,2.00
2017-10-09T06:41:14.107Z,2.07
2017-10-09T06:43:41.515Z,2.07
2017-10-09T06:46:08.930Z,2.10
2017-10-09T06:48:37.114Z,2.70
2017-10-09T06:51:05.300Z,1.97
2017-10-09T06:53:32.727Z,2.60
2017-10-09T06:56:00.138Z,2.30
2017-10-09T06:58:27.551Z,1.77
2017-10-09T07:00:55.735Z,2.30
2017-10-09T07:03:23.917Z,2.50
2017-10-09T07:05:51.505Z,2.20
2017-10-09T07:08:18.936Z,2.40
2017-10-09T07:10:46.350Z,2.70
2017-10-09T07:13:14.391Z,2.33
2017-10-09T07:15:41.863Z,2.80
2017-10-09T07:18:09.339Z,2.30
2017-10-09T07:20:36.758Z,2.33
2017-10-09T07:23:04.159Z,2.47
2017-10-09T07:25:32.367Z,2.80
2017-10-09T07:27:59.779Z,2.53
2017-10-09T07:30:27.194Z,2.50
2017-10-09T07:32:54.601Z,2.70
2017-10-09T07:35:22.447Z,3.10
2017-10-09T07:37:49.880Z,3.03
2017-10-09T07:40:17.292Z,3.13
2017-10-09T07:42:45.686Z,3.10
2017-10-09T07:45:13.087Z,2.87
2017-10-09T07:47:40.526Z,3.13
2017-10-09T07:50:07.980Z,3.10
2017-10-09T07:52:35.399Z,2.97
2017-10-09T07:55:02.835Z,3.10
2017-10-09T07:57:30.250Z,3.23
2017-10-09T07:59:57.662Z,3.80
2017-10-09T08:02:25.086Z,3.50
2017-10-09T08:04:52.518Z,3.60
2017-10-09T08:07:19.918Z,3.67
2017-10-09T08:09:48.117Z,3.43
2017-10-09T08:12:15.531Z,3.90
2017-10-09T08:14:42.962Z,3.70
2017-10-09T08:17:10.379Z,3.90
2017-10-09T08:19:38.023Z,3.77
2017-10-09T08:22:06.198Z,3.50
2017-10-09T08:24:34.382Z,2.70
2017-10-09T08:27:02.559Z,3.03
2017-10-09T08:29:29.982Z,3.13
2017-10-09T08:31:57.386Z,3.00
2017-10-09T08:34:24.811Z,2.93
2017-10-09T08:36:52.995Z,2.67
2017-10-09T08:39:21.179Z,2.80
2017-10-09T08:41:48.586Z,2.60
2017-10-09T08:44:16.018Z,4.00
2017-10-09T08:46:43.424Z,2.50
2017-10-09T08:49:11.608Z,2.27
2017-10-09T08:51:39.782Z,2.65
2017-10-09T08:54:08.178Z,2.30
2017-10-09T08:56:35.603Z,2.80
2017-10-09T08:59:03.791Z,1.90
2017-10-09T09:01:31.973Z,2.10
2017-10-09T09:03:59.390Z,2.17
2017-10-09T09:06:26.812Z,2.40
2017-10-09T09:08:54.266Z,2.07
2017-10-09T09:11:21.671Z,1.73
2017-10-09T09:13:49.078Z,1.80
2017-10-09T09:16:16.486Z,1.80
2017-10-09T09:18:44.675Z,1.67
2017-10-09T09:21:12.876Z,2.70
2017-10-09T09:23:40.279Z,1.87
2017-10-09T09:26:07.704Z,1.70
2017-10-09T09:28:35.106Z,2.17
2017-10-09T09:31:03.282Z,2.40
2017-10-09T09:33:31.455Z,1.70
2017-10-09T09:35:59.641Z,2.40
2017-10-09T09:38:27.068Z,2.30
2017-10-09T09:40:54.484Z,2.00
2017-10-09T09:43:21.899Z,2.20
2017-10-09T09:45:50.103Z,2.27
2017-10-09T09:48:17.532Z,1.80
2017-10-09T09:50:46.622Z,2.23
2017-10-09T09:53:15.367Z,2.53
2017-10-09T09:55:42.788Z,2.40
2017-10-09T09:58:10.202Z,2.57
2017-10-09T10:00:38.211Z,4.23
2017-10-09T10:03:05.631Z,4.97
2017-10-09T10:05:33.136Z,5.93
2017-10-09T10:08:00.576Z,4.00
2017-10-09T10:10:27.982Z,3.40
2017-10-09T10:12:55.398Z,5.00
2017-10-09T10:15:22.810Z,3.30
2017-10-09T10:17:50.989Z,2.80
2017-10-09T10:20:19.209Z,3.50
2017-10-09T10:22:48.077Z,3.60
2017-10-09T10:25:17.199Z,2.80
2017-10-09T10:27:44.616Z,3.00
2017-10-09T10:30:12.794Z,3.00
2017-10-09T10:32:40.971Z,2.80
2017-10-09T10:35:08.389Z,2.80
2017-10-09T10:37:35.824Z,2.43
2017-10-09T10:40:03.269Z,2.87
2017-10-09T10:42:30.725Z,2.33
2017-10-09T10:44:58.900Z,2.53
2017-10-09T10:47:26.311Z,2.80
2017-10-09T10:49:54.516Z,2.67
2017-10-09T10:52:21.930Z,3.13
2017-10-09T10:54:49.342Z,2.97
2017-10-09T10:57:17.693Z,3.10
2017-10-09T10:59:45.847Z,3.00
2017-10-09T11:02:14.023Z,3.07
2017-10-09T11:04:42.236Z,3.00
2017-10-09T11:07:09.635Z,2.53
2017-10-09T11:09:37.819Z,3.60
2017-10-09T11:12:05.248Z,3.00
2017-10-09T11:14:32.655Z,3.10
2017-10-09T11:17:00.133Z,2.63
2017-10-09T11:19:27.527Z,3.10
2017-10-09T11:21:54.946Z,3.33
2017-10-09T11:24:22.362Z,3.17
2017-10-09T11:26:50.534Z,3.07
2017-10-09T11:29:19.118Z,2.80
2017-10-09T11:31:48.232Z,2.90
2017-10-09T11:34:15.680Z,3.10
2017-10-09T11:36:43.066Z,3.10
2017-10-09T11:39:10.482Z,3.60
2017-10-09T11:41:38.670Z,2.60
2017-10-09T11:44:06.105Z,3.03
2017-10-09T11:46:34.278Z,2.70
2017-10-09T11:49:02.507Z,2.70
2017-10-09T11:51:29.917Z,2.70
2017-10-09T11:53:58.108Z,2.90
2017-10-09T11:56:25.527Z,2.80
2017-10-09T11:58:52.970Z,2.80
2017-10-09T12:01:20.382Z,2.40
2017-10-09T12:03:48.727Z,3.03
2017-10-09T12:06:16.134Z,1.67
2017-10-09T12:08:43.550Z,2.77
2017-10-09T12:11:11.726Z,2.67
2017-10-09T12:13:39.902Z,2.53
2017-10-09T12:16:08.207Z,2.83
2017-10-09T12:18:35.598Z,2.60
2017-10-09T12:21:03.202Z,2.50
2017-10-09T12:23:30.618Z,2.20
2017-10-09T12:25:58.050Z,2.20
2017-10-09T12:28:25.458Z,2.40
2017-10-09T12:33:27.599Z,2.55
2017-10-09T12:35:55.035Z,2.83
2017-10-09T12:38:22.455Z,2.50
2017-10-09T12:40:50.628Z,2.50
2017-10-09T12:45:52.603Z,2.50
2017-10-09T12:48:20.791Z,2.37
2017-10-09T12:50:48.234Z,2.90
2017-10-09T12:53:16.418Z,2.20
2017-10-09T12:55:43.844Z,2.13
2017-10-09T12:58:11.395Z,1.90
2017-10-09T13:00:38.806Z,2.27
2017-10-09T13:03:06.227Z,1.83
2017-10-09T13:05:34.417Z,1.90
2017-10-09T13:08:02.240Z,1.90
2017-10-09T13:10:29.807Z,2.40
2017-10-09T13:12:57.222Z,2.00
2017-10-09T13:15:24.632Z,2.33
2017-10-09T13:17:52.820Z,2.00
2017-10-09T13:20:21.102Z,2.22
2017-10-09T13:22:48.518Z,2.27
2017-10-09T13:25:16.045Z,2.13
2017-10-09T13:27:43.475Z,2.40
2017-10-09T13:30:10.886Z,2.13
2017-10-09T13:32:38.295Z,2.77
2017-10-09T13:35:05.715Z,2.77
2017-10-09T13:37:33.128Z,2.77
2017-10-09T13:40:00.563Z,2.63
2017-10-09T13:42:28.037Z,3.10
2017-10-09T13:44:55.427Z,3.10
2017-10-09T13:47:22.834Z,2.70
2017-10-09T13:49:50.769Z,2.90
2017-10-09T13:52:18.946Z,2.70
2017-10-09T13:54:47.131Z,2.93
2017-10-09T13:57:14.552Z,2.50
2017-10-09T13:59:42.743Z,2.63
2017-10-09T14:02:10.928Z,2.37
2017-10-09T14:04:39.123Z,2.37
2017-10-09T14:07:06.527Z,2.40
2017-10-09T14:09:33.959Z,2.50
2017-10-09T14:12:01.374Z,2.53
2017-10-09T14:14:29.553Z,2.43
2017-10-09T14:16:57.739Z,2.20
2017-10-09T14:19:25.142Z,1.90
2017-10-09T14:21:52.555Z,1.80
2017-10-09T14:24:19.970Z,2.27
2017-10-09T14:26:48.157Z,1.83
2017-10-09T14:29:16.331Z,1.90
2017-10-09T14:41:34.167Z,2.00
2017-10-09T14:44:01.580Z,2.00
2017-10-09T14:46:29.770Z,2.23
2017-10-09T14:48:57.192Z,2.20
2017-10-09T14:51:24.716Z,1.87
2017-10-09T14:53:52.111Z,2.00
2017-10-09T14:56:19.534Z,2.00
2017-10-09T14:58:46.928Z,2.30
2017-10-09T15:01:15.124Z,2.50
2017-10-09T15:03:42.543Z,2.40
2017-10-09T15:06:10.731Z,2.57
2017-10-09T15:08:38.922Z,2.70
2017-10-09T15:11:06.331Z,2.83
2017-10-09T15:13:33.746Z,2.70
2017-10-09T15:16:01.159Z,3.00
2017-10-09T15:18:28.583Z,3.30
2017-10-09T15:20:55.989Z,3.30
2017-10-09T15:23:24.171Z,3.03
2017-10-09T15:25:53.266Z,3.20
2017-10-09T15:28:21.444Z,3.30
2017-10-09T15:30:48.859Z,3.27
2017-10-09T15:33:17.795Z,3.20
2017-10-09T15:35:45.207Z,3.70
2017-10-09T15:38:12.623Z,3.43
2017-10-09T15:40:40.047Z,3.20
2017-10-09T15:43:08.250Z,3.20
2017-10-09T15:45:35.662Z,3.53
2017-10-09T15:48:03.885Z,3.73
2017-10-09T15:50:31.382Z,3.80
2017-10-09T15:52:58.788Z,4.30
2017-10-09T15:55:26.248Z,4.00
2017-10-09T15:57:54.427Z,4.77
2017-10-09T16:00:21.876Z,4.80
2017-10-09T16:02:49.299Z,5.33
2017-10-09T16:05:17.483Z,5.17
2017-10-09T16:07:45.658Z,5.60
2017-10-09T16:10:13.087Z,6.30
2017-10-09T16:12:40.507Z,6.60
2017-10-09T16:15:07.917Z,5.83
2017-10-09T16:17:36.859Z,6.97
2017-10-09T16:20:04.287Z,7.50
2017-10-09T16:22:31.703Z,7.70
2017-10-09T16:24:59.143Z,7.03
2017-10-09T16:27:26.551Z,6.87
2017-10-09T16:29:53.975Z,8.00
2017-10-09T16:32:22.157Z,8.50
2017-10-09T16:34:50.340Z,8.83
2017-10-09T16:37:18.519Z,9.70
2017-10-09T16:39:46.700Z,9.60
2017-10-09T16:42:14.176Z,9.87
2017-10-09T16:44:41.578Z,10.70
2017-10-09T16:47:08.998Z,11.33
2017-10-09T16:49:36.407Z,12.60
2017-10-09T16:52:04.598Z,10.80
2017-10-09T16:54:32.018Z,11.60
2017-10-09T16:56:59.449Z,12.70
2017-10-09T16:59:26.855Z,12.73
2017-10-09T17:01:55.131Z,12.10
2017-10-09T17:04:24.231Z,12.23
2017-10-09T17:06:51.687Z,13.47
2017-10-09T17:09:19.102Z,14.60
2017-10-09T17:11:46.630Z,14.33
2017-10-09T17:14:14.030Z,15.27
2017-10-09T17:16:42.519Z,15.50
2017-10-09T17:19:10.699Z,16.23
2017-10-09T17:21:38.886Z,17.63
2017-10-09T17:24:06.303Z,18.73
2017-10-09T17:26:33.744Z,18.13
2017-10-09T17:29:01.166Z,19.07
2017-10-09T17:31:28.643Z,20.00
2017-10-09T17:33:56.297Z,19.53
2017-10-09T17:36:23.716Z,20.40
2017-10-09T17:38:51.905Z,21.30
2017-10-09T17:41:19.502Z,21.87
2017-10-09T17:43:46.927Z,22.30
2017-10-09T17:46:14.334Z,22.07
2017-10-09T17:48:41.759Z,22.37
2017-10-09T17:51:09.210Z,22.70
2017-10-09T17:53:36.769Z,22.40
2017-10-09T17:56:04.226Z,22.33
2017-10-09T17:58:31.796Z,23.10
2017-10-09T18:00:59.201Z,24.10
2017-10-09T18:03:27.386Z,23.70
2017-10-09T18:05:56.374Z,25.55
2017-10-09T18:08:25.482Z,25.80
2017-10-09T18:10:52.903Z,26.13
2017-10-09T18:13:20.338Z,26.87
2017-10-09T18:15:47.769Z,27.60
2017-10-09T18:18:15.242Z,28.00
2017-10-09T18:20:42.657Z,26.60
2017-10-09T18:23:10.847Z,27.90
2017-10-09T18:25:38.267Z,28.60
2017-10-09T18:28:06.455Z,28.20
2017-10-09T18:30:34.638Z,28.80
2017-10-09T18:33:02.056Z,28.83
2017-10-09T18:35:29.480Z,29.27
2017-10-09T18:37:56.899Z,30.17
2017-10-09T18:40:25.097Z,28.70
2017-10-09T18:42:52.510Z,30.27
2017-10-09T18:45:20.739Z,30.00
2017-10-09T18:47:48.135Z,28.90
2017-10-09T18:50:15.560Z,31.17
2017-10-09T18:52:42.987Z,31.23
2017-10-09T18:55:10.403Z,30.70
2017-10-09T18:57:38.591Z,31.17
2017-10-09T19:00:06.778Z,32.37
2017-10-09T19:02:34.191Z,31.90
2017-10-09T19:05:01.622Z,33.57
2017-10-09T19:07:29.043Z,32.73
2017-10-09T19:09:57.534Z,34.72
2017-10-09T19:12:24.962Z,32.93
2017-10-09T19:14:52.385Z,33.70
2017-10-09T19:17:19.812Z,31.97
2017-10-09T19:19:47.252Z,32.30
2017-10-09T19:22:14.673Z,32.10
2017-10-09T19:24:42.103Z,33.27
2017-10-09T19:27:09.532Z,33.33
2017-10-09T19:29:36.952Z,33.80
2017-10-09T19:32:04.376Z,34.03
2017-10-09T19:34:31.811Z,34.80
2017-10-09T19:36:59.830Z,34.83
2017-10-09T19:39:27.247Z,35.00
2017-10-09T19:41:54.665Z,36.93
2017-10-09T19:44:22.843Z,35.63
2017-10-09T19:46:50.267Z,35.90
2017-10-09T19:49:17.679Z,36.50
2017-10-09T19:51:45.099Z,35.03
2017-10-09T19:54:13.287Z,36.40
2017-10-09T19:56:40.725Z,37.53
2017-10-09T19:59:08.133Z,37.10
2017-10-09T20:01:35.575Z,36.90
2017-10-09T20:04:03.011Z,38.13
2017-10-09T20:06:31.185Z,37.63
2017-10-09T20:08:59.375Z,36.90
2017-10-09T20:11:26.806Z,36.13
2017-10-09T20:13:55.004Z,35.57
2017-10-09T20:16:22.416Z,37.40
2017-10-09T20:18:51.542Z,36.87
2017-10-09T20:21:18.963Z,36.70
2017-10-09T20:23:47.158Z,36.30
2017-10-09T20:26:15.365Z,35.77
2017-10-09T20:28:42.796Z,36.00
2017-10-09T20:31:10.224Z,37.40
2017-10-09T20:33:37.652Z,36.17
2017-10-09T20:36:05.073Z,36.37
2017-10-09T20:38:32.494Z,35.90
2017-10-09T20:40:59.907Z,37.43
2017-10-09T20:43:27.391Z,34.80
2017-10-09T20:45:54.812Z,36.60
2017-10-09T20:48:22.235Z,35.60
2017-10-09T20:50:51.340Z,36.53
2017-10-09T20:53:18.759Z,36.50
2017-10-09T20:55:46.623Z,36.00
2017-10-09T20:58:14.059Z,34.30
2017-10-09T21:00:42.212Z,34.37
2017-10-09T21:03:10.209Z,33.20
2017-10-09T21:05:37.632Z,34.60
2017-10-09T21:08:05.048Z,34.10
2017-10-09T21:10:32.465Z,33.87
2017-10-09T21:12:59.886Z,34.08
2017-10-09T21:15:27.339Z,35.83
2017-10-09T21:17:55.495Z,35.20
2017-10-09T21:20:23.707Z,34.73
2017-10-09T21:22:52.707Z,33.53
2017-10-09T21:25:20.122Z,33.67
2017-10-09T21:27:48.319Z,33.50
2017-10-09T21:30:15.791Z,33.47
2017-10-09T21:32:43.194Z,35.70
2017-10-09T21:35:10.615Z,35.10
2017-10-09T21:37:38.031Z,35.00
2017-10-09T21:40:05.452Z,34.07
2017-10-09T21:42:32.870Z,35.63
2017-10-09T21:45:00.284Z,35.67
2017-10-09T21:47:28.459Z,34.23
2017-10-09T21:49:56.638Z,34.33
2017-10-09T21:52:24.819Z,33.43
2017-10-09T21:54:53.314Z,34.50
2017-10-09T21:57:20.739Z,33.03
2017-10-09T21:59:48.155Z,33.30
2017-10-09T22:02:15.576Z,32.00
2017-10-09T22:04:43.009Z,34.77
2017-10-09T22:07:10.413Z,33.87
2017-10-09T22:09:37.827Z,33.60
2017-10-09T22:12:06.016Z,35.00
2017-10-09T22:14:33.428Z,32.00
2017-10-09T22:17:00.942Z,36.90
2017-10-09T22:19:28.372Z,34.73
2017-10-09T22:21:56.630Z,33.90
2017-10-09T22:24:24.807Z,34.53
2017-10-09T22:26:53.711Z,34.40
2017-10-09T22:29:21.900Z,32.63
2017-10-09T22:31:49.315Z,35.17
2017-10-09T22:34:16.726Z,34.20
2017-10-09T22:36:44.142Z,33.17
2017-10-09T22:39:12.327Z,33.13
2017-10-09T22:41:40.511Z,34.23
2017-10-09T22:44:07.922Z,33.73
2017-10-09T22:46:35.353Z,33.87
2017-10-09T22:49:02.766Z,31.50
2017-10-09T22:51:30.943Z,33.77
2017-10-09T22:53:59.143Z,33.00
2017-10-09T22:56:26.559Z,31.30
2017-10-09T22:58:54.738Z,31.87
2017-10-09T23:01:23.838Z,33.47
2017-10-09T23:03:52.023Z,32.40
2017-10-09T23:06:19.439Z,34.30
2017-10-09T23:08:46.861Z,33.10
2017-10-09T23:11:14.284Z,31.43
2017-10-09T23:13:42.473Z,31.60
2017-10-09T23:16:09.891Z,31.30
2017-10-09T23:18:37.315Z,31.03
2017-10-09T23:21:04.738Z,30.43
2017-10-09T23:23:32.154Z,29.60
2017-10-09T23:26:01.082Z,30.10
2017-10-09T23:28:28.498Z,30.00
2017-10-09T23:30:55.914Z,30.60
2017-10-09T23:33:24.662Z,31.12
2017-10-09T23:35:53.816Z,30.67
2017-10-09T23:38:21.231Z,29.70
2017-10-09T23:40:48.656Z,29.40
2017-10-09T23:43:16.092Z,29.00
2017-10-09T23:45:43.515Z,29.20
2017-10-09T23:48:10.942Z,29.43
2017-10-09T23:50:39.144Z,28.43
2017-10-09T23:53:07.330Z,28.20
2017-10-09T23:55:34.750Z,27.33
2017-10-09T23:58:02.926Z,29.00
